Terminal Aerodrome Forecast
Issued by NWS

Home | Current Version | Previous Version | Text Only | Print | Product List | Glossary On
Versions: 1 2 3 4 5 6 7 8 9 10 11 12 13 14 15 16
000
FTUS42 KFFC 221723
TAFPDK
TAF
KPDK 221723Z 2218/2318 33008KT P6SM FEW250
     FM230300 34003KT P6SM SCT250
     FM230500 02003KT P6SM SCT030
     FM230800 06003KT P6SM BKN030
     FM231600 08004KT P6SM FEW035=

USA.gov is the U.S. government's official web portal to all federal, state and local government web resources and services.